createdAt,value
2022-08-24T00:00:23.349Z,6.97
2022-08-24T00:02:50.370Z,7.32
2022-08-24T00:05:21.287Z,5.75
2022-08-24T00:07:49.899Z,7.07
2022-08-24T00:10:18.125Z,7.30
2022-08-24T00:12:44.882Z,5.55
2022-08-24T00:15:13.879Z,5.57
2022-08-24T00:17:40.834Z,5.20
2022-08-24T00:20:09.855Z,8.65
2022-08-24T00:22:36.718Z,5.70
2022-08-24T00:25:04.653Z,9.80
2022-08-24T00:27:31.445Z,5.82
2022-08-24T00:29:58.149Z,6.78
2022-08-24T00:32:25.034Z,5.72
2022-08-24T00:34:59.268Z,6.53
2022-08-24T00:37:28.844Z,7.13
2022-08-24T00:39:56.266Z,7.22
2022-08-24T00:42:24.502Z,7.57
2022-08-24T00:44:52.091Z,5.18
2022-08-24T00:47:22.519Z,5.35
2022-08-24T00:49:55.925Z,6.32
2022-08-24T00:52:33.528Z,4.35
2022-08-24T00:55:23.478Z,5.78
2022-08-24T00:57:53.510Z,5.97
2022-08-24T01:00:24.337Z,7.10
2022-08-24T01:02:57.328Z,7.93
2022-08-24T01:05:24.845Z,5.22
2022-08-24T01:07:51.602Z,5.45
2022-08-24T01:10:21.623Z,5.55
2022-08-24T01:12:59.734Z,5.78
2022-08-24T01:15:28.717Z,5.47
2022-08-24T01:18:14.711Z,5.38
2022-08-24T01:20:44.113Z,6.43
2022-08-24T01:23:37.066Z,7.65
2022-08-24T01:26:05.237Z,7.15
2022-08-24T01:28:32.282Z,4.13
2022-08-24T01:30:59.678Z,5.50
2022-08-24T01:33:29.611Z,6.80
2022-08-24T01:36:13.529Z,6.40
2022-08-24T01:38:40.411Z,4.82
2022-08-24T01:41:07.516Z,3.65
2022-08-24T01:43:37.288Z,5.78
2022-08-24T01:46:06.172Z,4.82
2022-08-24T01:48:33.436Z,5.30
2022-08-24T01:51:00.178Z,5.00
2022-08-24T01:53:27.180Z,6.50
2022-08-24T01:55:54.201Z,5.63
2022-08-24T01:58:21.658Z,5.93
2022-08-24T02:00:48.730Z,5.22
2022-08-24T02:03:15.846Z,4.18
2022-08-24T02:05:47.145Z,5.65
2022-08-24T02:08:15.065Z,3.42
2022-08-24T02:10:41.825Z,5.53
2022-08-24T02:13:16.683Z,6.28
2022-08-24T02:15:43.464Z,5.90
2022-08-24T02:18:15.388Z,7.10
2022-08-24T02:20:43.506Z,7.45
2022-08-24T02:23:10.255Z,5.28
2022-08-24T02:25:37.063Z,6.47
2022-08-24T02:28:04.391Z,6.22
2022-08-24T02:30:31.851Z,5.90
2022-08-24T02:32:59.312Z,3.97
2022-08-24T02:35:27.170Z,6.60
2022-08-24T02:37:53.926Z,7.63
2022-08-24T02:40:21.047Z,7.72
2022-08-24T02:42:48.857Z,6.20
2022-08-24T02:45:15.600Z,5.22
2022-08-24T02:47:42.570Z,7.70
2022-08-24T02:50:11.551Z,6.45
2022-08-24T02:52:39.638Z,4.43
2022-08-24T02:55:09.432Z,5.45
2022-08-24T02:57:38.805Z,4.40
2022-08-24T03:00:10.631Z,4.93
2022-08-24T03:02:40.391Z,5.07
2022-08-24T03:05:08.671Z,8.65
2022-08-24T03:07:36.199Z,6.32
2022-08-24T03:10:05.140Z,5.10
2022-08-24T03:12:32.131Z,6.50
2022-08-24T03:14:59.491Z,4.93
2022-08-24T03:17:26.200Z,4.53
2022-08-24T03:19:52.909Z,7.65
2022-08-24T03:22:20.482Z,6.18
2022-08-24T03:24:47.229Z,7.55
2022-08-24T03:27:15.099Z,10.63
2022-08-24T03:29:41.841Z,8.32
2022-08-24T03:32:08.852Z,9.80
2022-08-24T03:34:36.244Z,9.57
2022-08-24T03:37:03.066Z,8.65
2022-08-24T03:39:29.940Z,7.90
2022-08-24T03:41:57.234Z,10.32
2022-08-24T03:44:26.221Z,12.68
2022-08-24T03:46:54.390Z,10.25
2022-08-24T03:49:23.259Z,10.55
2022-08-24T03:51:50.635Z,13.05
2022-08-24T03:54:20.705Z,13.18
2022-08-24T03:56:47.785Z,21.10
2022-08-24T03:59:18.947Z,21.48
2022-08-24T04:01:48.105Z,22.08
2022-08-24T04:04:15.259Z,23.73
2022-08-24T04:06:44.629Z,23.02
2022-08-24T04:09:11.991Z,23.10
2022-08-24T04:11:41.725Z,34.30
2022-08-24T04:14:22.307Z,34.85
2022-08-24T04:17:04.740Z,29.10
2022-08-24T04:19:36.477Z,26.15
2022-08-24T04:22:03.655Z,26.73
2022-08-24T04:24:30.475Z,30.88
2022-08-24T04:26:57.236Z,36.65
2022-08-24T04:29:25.711Z,34.78
2022-08-24T04:31:53.667Z,37.42
2022-08-24T04:34:21.488Z,42.03
2022-08-24T04:36:48.960Z,49.20
2022-08-24T04:39:15.746Z,38.63
2022-08-24T04:41:45.259Z,34.25
2022-08-24T04:44:14.424Z,46.05
2022-08-24T04:46:41.164Z,36.65
2022-08-24T04:49:09.013Z,57.17
2022-08-24T04:51:36.495Z,33.60
2022-08-24T04:54:05.199Z,28.55
2022-08-24T04:56:31.970Z,30.20
2022-08-24T04:58:59.629Z,21.77
2022-08-24T05:01:29.085Z,25.20
2022-08-24T05:03:57.483Z,31.90
2022-08-24T05:06:27.319Z,26.20
2022-08-24T05:08:54.217Z,20.25
2022-08-24T05:11:22.234Z,22.92
2022-08-24T05:13:52.170Z,23.55
2022-08-24T05:16:18.936Z,20.30
2022-08-24T05:18:47.016Z,20.75
2022-08-24T05:21:17.100Z,26.25
2022-08-24T05:23:45.231Z,21.42
2022-08-24T05:26:31.815Z,23.60
2022-08-24T05:29:01.922Z,26.52
2022-08-24T05:31:44.348Z,24.35
2022-08-24T05:34:12.585Z,23.02
2022-08-24T05:36:40.999Z,18.35
2022-08-24T05:39:13.956Z,21.23
2022-08-24T05:41:46.379Z,19.63
2022-08-24T05:44:19.812Z,20.92
2022-08-24T05:46:47.423Z,22.13
2022-08-24T05:49:14.305Z,26.98
2022-08-24T05:51:42.875Z,25.55
2022-08-24T05:54:13.872Z,28.42
2022-08-24T05:56:52.860Z,37.00
2022-08-24T05:59:21.008Z,31.70
2022-08-24T06:01:48.259Z,23.65
2022-08-24T06:04:17.945Z,24.73
2022-08-24T06:06:48.713Z,23.05
2022-08-24T06:09:16.348Z,22.08
2022-08-24T06:11:47.798Z,23.95
2022-08-24T06:14:17.887Z,29.15
2022-08-24T06:16:57.259Z,25.35
2022-08-24T06:19:24.571Z,25.98
2022-08-24T06:21:53.950Z,23.00
2022-08-24T06:24:45.064Z,26.17
2022-08-24T06:27:22.613Z,26.92
2022-08-24T06:29:53.958Z,26.05
2022-08-24T06:32:44.280Z,30.20
2022-08-24T06:35:20.898Z,29.48
2022-08-24T06:37:48.692Z,26.38
2022-08-24T06:40:15.668Z,29.13
2022-08-24T06:42:42.463Z,29.60
2022-08-24T06:45:22.422Z,30.65
2022-08-24T06:47:50.219Z,29.25
2022-08-24T06:50:18.349Z,30.58
2022-08-24T06:52:48.959Z,31.42
2022-08-24T06:55:15.814Z,29.05
2022-08-24T06:57:43.079Z,29.02
2022-08-24T07:00:11.145Z,30.80
2022-08-24T07:02:38.099Z,29.80
2022-08-24T07:05:05.889Z,28.83
2022-08-24T07:07:51.399Z,29.75
2022-08-24T07:10:18.289Z,28.77
2022-08-24T07:12:50.876Z,29.55
2022-08-24T07:15:19.541Z,26.67
2022-08-24T07:17:57.764Z,31.30
2022-08-24T07:20:25.138Z,28.27
2022-08-24T07:23:15.180Z,26.48
2022-08-24T07:25:46.199Z,30.85
2022-08-24T07:28:16.265Z,27.92
2022-08-24T07:30:43.998Z,32.40
2022-08-24T07:33:12.810Z,28.70
2022-08-24T07:35:41.196Z,31.10
2022-08-24T07:38:08.425Z,27.55
2022-08-24T07:40:55.744Z,27.80
2022-08-24T07:43:22.675Z,25.58
2022-08-24T07:45:51.886Z,29.30
2022-08-24T07:48:19.373Z,25.58
2022-08-24T07:50:47.045Z,26.70
2022-08-24T07:53:18.218Z,24.65
2022-08-24T07:55:56.760Z,27.30
2022-08-24T07:58:24.786Z,28.38
2022-08-24T08:00:51.779Z,25.58
2022-08-24T08:03:19.985Z,23.25
2022-08-24T08:05:46.726Z,24.88
2022-08-24T08:08:13.683Z,21.42
2022-08-24T08:10:41.227Z,22.55
2022-08-24T08:13:08.199Z,22.13
2022-08-24T08:15:36.351Z,26.90
2022-08-24T08:18:09.556Z,19.60
2022-08-24T08:20:40.877Z,19.67
2022-08-24T08:23:26.726Z,21.42
2022-08-24T08:26:17.391Z,20.17
2022-08-24T08:29:03.200Z,24.73
2022-08-24T08:31:32.309Z,112.30
2022-08-24T08:34:01.227Z,19.77
2022-08-24T08:36:28.232Z,17.95
2022-08-24T08:38:55.303Z,21.42
2022-08-24T08:41:44.221Z,16.40
2022-08-24T08:44:35.754Z,17.42
2022-08-24T08:47:33.956Z,18.10
2022-08-24T08:50:22.046Z,20.45
2022-08-24T08:53:11.879Z,17.85
2022-08-24T08:55:51.598Z,18.42
2022-08-24T08:58:32.906Z,16.48
2022-08-24T09:01:13.192Z,19.73
2022-08-24T09:04:01.594Z,20.88
2022-08-24T09:06:58.629Z,15.80
2022-08-24T09:09:35.074Z,14.60
2022-08-24T09:12:21.159Z,15.48
2022-08-24T09:15:17.568Z,16.60
2022-08-24T09:18:06.771Z,14.77
2022-08-24T09:21:03.743Z,16.90
2022-08-24T09:24:00.542Z,12.93
2022-08-24T09:26:38.592Z,16.05
2022-08-24T09:29:17.058Z,16.60
2022-08-24T09:32:19.016Z,13.30
2022-08-24T09:34:46.313Z,14.23
2022-08-24T09:37:22.138Z,14.32
2022-08-24T09:40:05.719Z,10.50
2022-08-24T09:42:39.043Z,10.45
2022-08-24T09:45:37.917Z,12.55
2022-08-24T09:48:37.366Z,13.20
2022-08-24T09:51:18.991Z,10.15
2022-08-24T09:54:04.640Z,12.50
2022-08-24T09:57:12.220Z,13.38
2022-08-24T10:00:10.809Z,10.50
2022-08-24T10:02:55.924Z,11.82
2022-08-24T10:05:44.611Z,10.93
2022-08-24T10:08:20.458Z,12.65
2022-08-24T10:11:15.644Z,12.55
2022-08-24T10:14:20.272Z,12.15
2022-08-24T10:16:53.352Z,9.85
2022-08-24T10:19:24.252Z,10.18
2022-08-24T10:21:57.421Z,12.57
2022-08-24T10:24:30.302Z,11.55
2022-08-24T10:27:34.658Z,12.82
2022-08-24T10:30:30.671Z,12.48
2022-08-24T10:33:06.420Z,9.18
2022-08-24T10:35:45.825Z,10.23
2022-08-24T10:38:51.289Z,9.50
2022-08-24T10:41:41.715Z,9.68
2022-08-24T10:44:27.113Z,16.35
2022-08-24T10:46:59.765Z,10.00
2022-08-24T10:49:29.441Z,10.55
2022-08-24T10:52:14.447Z,9.90
2022-08-24T10:54:41.357Z,11.75
2022-08-24T10:57:28.611Z,12.25
2022-08-24T10:59:59.346Z,11.73
2022-08-24T11:02:38.057Z,14.73
2022-08-24T11:05:10.739Z,11.70
2022-08-24T11:07:38.577Z,11.88
2022-08-24T11:10:09.008Z,15.50
2022-08-24T11:12:38.750Z,12.30
2022-08-24T11:15:28.259Z,9.48
2022-08-24T11:18:03.126Z,10.50
2022-08-24T11:20:36.717Z,11.05
2022-08-24T11:23:07.075Z,10.55
2022-08-24T11:25:36.857Z,9.27
2022-08-24T11:28:17.509Z,12.85
2022-08-24T11:30:44.351Z,10.13
2022-08-24T11:33:29.364Z,9.50
2022-08-24T11:35:56.927Z,12.18
2022-08-24T11:38:34.513Z,11.38
2022-08-24T11:41:20.595Z,8.25
2022-08-24T11:44:07.889Z,10.40
2022-08-24T11:47:00.504Z,10.30
2022-08-24T11:49:54.670Z,11.75
2022-08-24T11:52:58.849Z,8.90
2022-08-24T11:55:45.396Z,9.43
2022-08-24T11:58:32.707Z,12.43
2022-08-24T12:01:07.144Z,10.20
2022-08-24T12:03:33.894Z,11.25
2022-08-24T12:06:32.517Z,8.30
2022-08-24T12:08:59.606Z,10.02
2022-08-24T12:11:53.520Z,10.48
2022-08-24T12:14:33.177Z,8.07
2022-08-24T12:17:10.293Z,10.77
2022-08-24T12:19:48.662Z,9.15
2022-08-24T12:22:16.530Z,10.98
2022-08-24T12:24:52.776Z,7.38
2022-08-24T12:27:26.209Z,7.82
2022-08-24T12:30:05.555Z,9.65
2022-08-24T12:32:49.050Z,10.32
2022-08-24T12:35:32.785Z,7.07
2022-08-24T12:38:13.896Z,10.60
2022-08-24T12:40:44.344Z,7.40
2022-08-24T12:43:26.492Z,7.32
2022-08-24T12:45:56.867Z,9.38
2022-08-24T12:48:39.592Z,9.90
2022-08-24T12:51:06.368Z,9.77
2022-08-24T12:54:08.397Z,7.63
2022-08-24T12:56:54.109Z,8.55
2022-08-24T12:59:20.998Z,9.60
2022-08-24T13:01:58.601Z,11.05
2022-08-24T13:04:28.491Z,9.02
2022-08-24T13:07:12.012Z,7.45
2022-08-24T13:09:40.607Z,9.35
2022-08-24T13:12:38.563Z,13.05
2022-08-24T13:15:26.423Z,7.80
2022-08-24T13:18:01.687Z,9.70
2022-08-24T13:20:38.754Z,8.63
2022-08-24T13:23:07.083Z,9.88
2022-08-24T13:25:52.870Z,9.90
2022-08-24T13:28:25.847Z,9.57
2022-08-24T13:31:02.947Z,6.38
2022-08-24T13:33:32.569Z,7.63
2022-08-24T13:36:21.675Z,8.32
2022-08-24T13:39:21.151Z,11.40
2022-08-24T13:42:12.944Z,10.52
2022-08-24T13:44:48.180Z,9.20
2022-08-24T13:47:24.240Z,10.32
2022-08-24T13:50:26.542Z,7.93
2022-08-24T13:53:05.522Z,11.82
2022-08-24T13:55:39.721Z,10.80
2022-08-24T13:58:13.633Z,8.70
2022-08-24T14:00:52.589Z,10.48
2022-08-24T14:03:19.310Z,9.88
2022-08-24T14:05:50.906Z,10.15
2022-08-24T14:08:30.308Z,7.55
2022-08-24T14:11:00.497Z,8.68
2022-08-24T14:13:46.787Z,8.25
2022-08-24T14:17:17.276Z,10.25
2022-08-24T14:20:09.188Z,9.70
2022-08-24T14:23:01.140Z,7.18
2022-08-24T14:25:33.373Z,10.38
2022-08-24T14:28:00.232Z,8.25
2022-08-24T14:30:27.061Z,8.35
2022-08-24T14:33:00.104Z,11.25
2022-08-24T14:35:29.870Z,7.57
2022-08-24T14:38:10.575Z,6.35
2022-08-24T14:41:04.068Z,9.40
2022-08-24T14:43:35.038Z,8.00
2022-08-24T14:46:18.093Z,6.70
2022-08-24T14:49:10.021Z,8.52
2022-08-24T14:52:04.454Z,6.57
2022-08-24T14:54:38.287Z,8.07
2022-08-24T14:57:29.824Z,9.35
2022-08-24T15:00:24.978Z,10.45
2022-08-24T15:02:51.735Z,10.82
2022-08-24T15:05:25.646Z,12.27
2022-08-24T15:08:02.539Z,8.57
2022-08-24T15:10:39.259Z,9.32
2022-08-24T15:13:28.010Z,6.10
2022-08-24T15:16:03.376Z,9.80
2022-08-24T15:18:42.396Z,8.13
2022-08-24T15:21:21.424Z,9.02
2022-08-24T15:24:09.842Z,11.68
2022-08-24T15:27:01.806Z,6.90
2022-08-24T15:29:31.758Z,8.95
2022-08-24T15:32:16.932Z,9.27
2022-08-24T15:34:55.565Z,7.70
2022-08-24T15:37:34.624Z,7.72
2022-08-24T15:40:04.509Z,10.82
2022-08-24T15:42:34.317Z,7.55
2022-08-24T15:45:02.742Z,11.40
2022-08-24T15:47:38.069Z,9.00
2022-08-24T15:50:08.690Z,8.73
2022-08-24T15:52:44.052Z,8.52
2022-08-24T15:55:35.372Z,9.18
2022-08-24T15:58:25.793Z,9.32
2022-08-24T16:01:19.207Z,9.40
2022-08-24T16:03:50.032Z,5.85
2022-08-24T16:06:21.719Z,7.47
2022-08-24T16:08:58.915Z,6.70
2022-08-24T16:11:38.653Z,5.80
2022-08-24T16:14:08.530Z,9.88
2022-08-24T16:16:40.916Z,10.85
2022-08-24T16:19:19.478Z,8.80
2022-08-24T16:22:07.677Z,7.20
2022-08-24T16:24:37.256Z,7.78
2022-08-24T16:27:13.661Z,7.72
2022-08-24T16:29:42.034Z,8.15
2022-08-24T16:32:22.991Z,8.02
2022-08-24T16:35:09.327Z,11.88
2022-08-24T16:37:36.426Z,13.05
2022-08-24T16:40:10.812Z,7.03
2022-08-24T16:42:37.822Z,10.27
2022-08-24T16:45:08.040Z,31.70
2022-08-24T16:47:34.946Z,9.00
2022-08-24T16:50:02.078Z,5.93
2022-08-24T16:52:28.831Z,10.00
2022-08-24T16:54:55.570Z,8.45
2022-08-24T16:57:29.760Z,10.23
2022-08-24T16:59:56.864Z,9.68
2022-08-24T17:02:25.964Z,10.18
2022-08-24T17:04:54.971Z,10.93
2022-08-24T17:07:24.871Z,90.75
2022-08-24T17:09:52.290Z,12.57
2022-08-24T17:12:19.429Z,9.13
2022-08-24T17:14:46.406Z,8.82
2022-08-24T17:17:15.294Z,14.70
2022-08-24T17:19:43.868Z,10.93
2022-08-24T17:22:15.989Z,10.90
2022-08-24T17:24:43.448Z,7.20
2022-08-24T17:27:10.705Z,21.00
2022-08-24T17:29:37.583Z,19.50
2022-08-24T17:32:05.350Z,22.15
2022-08-24T17:34:32.521Z,12.85
2022-08-24T17:36:59.806Z,14.25
2022-08-24T17:39:28.493Z,8.18
2022-08-24T17:41:56.982Z,10.18
2022-08-24T17:44:26.539Z,7.90
2022-08-24T17:46:55.128Z,8.52
2022-08-24T17:49:22.255Z,8.73
2022-08-24T17:51:49.893Z,10.10
2022-08-24T17:54:17.604Z,8.65
2022-08-24T17:56:46.713Z,7.70
2022-08-24T17:59:23.655Z,9.88
2022-08-24T18:01:56.939Z,9.68
2022-08-24T18:04:27.712Z,9.27
2022-08-24T18:06:56.060Z,8.10
2022-08-24T18:09:38.439Z,7.15
2022-08-24T18:12:07.405Z,10.90
2022-08-24T18:14:34.888Z,7.78
2022-08-24T18:17:05.830Z,6.18
2022-08-24T18:19:33.984Z,9.63
2022-08-24T18:22:01.647Z,11.15
2022-08-24T18:24:32.684Z,8.45
2022-08-24T18:27:02.110Z,10.20
2022-08-24T18:29:37.478Z,9.48
2022-08-24T18:32:04.396Z,8.05
2022-08-24T18:34:31.976Z,9.20
2022-08-24T18:36:58.789Z,11.32
2022-08-24T18:39:25.642Z,9.07
2022-08-24T18:41:53.017Z,8.30
2022-08-24T18:44:21.866Z,11.05
2022-08-24T18:46:49.238Z,7.68
2022-08-24T18:49:17.409Z,8.80
2022-08-24T18:51:45.194Z,7.43
2022-08-24T18:54:21.173Z,9.00
2022-08-24T18:56:48.318Z,8.07
2022-08-24T18:59:16.153Z,9.25
2022-08-24T19:02:03.285Z,10.82
2022-08-24T19:04:33.300Z,9.80
2022-08-24T19:07:01.199Z,10.25
2022-08-24T19:09:33.948Z,8.00
2022-08-24T19:12:01.588Z,8.68
2022-08-24T19:14:28.688Z,8.48
2022-08-24T19:16:55.510Z,8.85
2022-08-24T19:19:22.712Z,6.13
2022-08-24T19:21:49.763Z,7.03
2022-08-24T19:24:18.807Z,9.30
2022-08-24T19:26:45.698Z,9.48
2022-08-24T19:29:12.496Z,8.60
2022-08-24T19:31:39.357Z,8.45
2022-08-24T19:34:06.843Z,7.72
2022-08-24T19:36:33.656Z,10.73
2022-08-24T19:39:00.488Z,9.50
2022-08-24T19:41:36.554Z,6.13
2022-08-24T19:44:27.331Z,6.50
2022-08-24T19:46:55.788Z,10.32
2022-08-24T19:49:23.709Z,7.25
2022-08-24T19:51:51.022Z,9.15
2022-08-24T19:54:17.907Z,6.68
2022-08-24T19:56:45.657Z,7.45
2022-08-24T19:59:27.083Z,7.00
2022-08-24T20:01:54.243Z,8.68
2022-08-24T20:04:21.046Z,10.88
2022-08-24T20:06:48.121Z,8.57
2022-08-24T20:09:15.183Z,9.23
2022-08-24T20:11:42.472Z,9.85
2022-08-24T20:14:09.759Z,10.10
2022-08-24T20:16:42.244Z,9.35
2022-08-24T20:19:11.042Z,8.25
2022-08-24T20:21:38.908Z,10.13
2022-08-24T20:24:06.539Z,10.27
2022-08-24T20:26:39.404Z,8.02
2022-08-24T20:29:06.338Z,9.60
2022-08-24T20:31:33.446Z,8.82
2022-08-24T20:34:00.172Z,15.25
2022-08-24T20:36:29.936Z,10.00
2022-08-24T20:38:58.164Z,10.48
2022-08-24T20:41:26.134Z,10.02
2022-08-24T20:43:53.337Z,9.65
2022-08-24T20:46:20.803Z,9.05
2022-08-24T20:48:55.738Z,8.48
2022-08-24T20:51:24.290Z,8.05
2022-08-24T20:53:51.050Z,9.38
2022-08-24T20:56:33.975Z,13.82
2022-08-24T20:59:06.723Z,8.48
2022-08-24T21:01:33.451Z,9.20
2022-08-24T21:04:04.799Z,12.52
2022-08-24T21:06:33.222Z,8.38
2022-08-24T21:09:00.853Z,9.23
2022-08-24T21:11:27.699Z,8.73
2022-08-24T21:13:54.423Z,9.45
2022-08-24T21:16:21.255Z,12.30
2022-08-24T21:18:48.079Z,11.75
2022-08-24T21:21:14.798Z,8.90
2022-08-24T21:23:41.574Z,11.50
2022-08-24T21:26:10.950Z,10.52
2022-08-24T21:28:40.495Z,7.28
2022-08-24T21:31:07.339Z,7.47
2022-08-24T21:33:53.195Z,7.75
2022-08-24T21:36:21.405Z,11.50
2022-08-24T21:38:48.572Z,8.77
2022-08-24T21:41:15.760Z,12.20
2022-08-24T21:43:42.711Z,12.60
2022-08-24T21:46:09.913Z,10.43
2022-08-24T21:48:36.711Z,14.68
2022-08-24T21:51:03.780Z,8.93
2022-08-24T21:53:30.542Z,8.43
2022-08-24T21:55:57.630Z,8.52
2022-08-24T21:58:24.594Z,8.15
2022-08-24T22:00:51.991Z,8.82
2022-08-24T22:03:19.519Z,8.77
2022-08-24T22:05:46.233Z,8.20
2022-08-24T22:08:12.963Z,7.43
2022-08-24T22:10:39.719Z,10.27
2022-08-24T22:13:07.201Z,11.32
2022-08-24T22:15:34.295Z,9.88
2022-08-24T22:18:01.439Z,9.85
2022-08-24T22:20:28.398Z,7.78
2022-08-24T22:22:55.152Z,7.10
2022-08-24T22:25:21.861Z,10.20
2022-08-24T22:27:48.923Z,5.72
2022-08-24T22:30:17.901Z,9.20
2022-08-24T22:32:46.182Z,10.38
2022-08-24T22:35:13.194Z,9.73
2022-08-24T22:37:39.959Z,12.60
2022-08-24T22:40:07.428Z,8.13
2022-08-24T22:42:39.241Z,6.85
2022-08-24T22:45:06.575Z,8.85
2022-08-24T22:47:33.641Z,8.45
2022-08-24T22:50:00.427Z,7.32
2022-08-24T22:52:27.411Z,9.98
2022-08-24T22:54:58.513Z,10.70
2022-08-24T22:57:26.860Z,9.10
2022-08-24T22:59:54.939Z,7.53
2022-08-24T23:02:22.395Z,9.13
2022-08-24T23:04:50.944Z,8.48
2022-08-24T23:07:18.513Z,6.82
2022-08-24T23:09:46.436Z,7.82
2022-08-24T23:12:19.879Z,10.48
2022-08-24T23:14:46.598Z,9.05
2022-08-24T23:17:14.681Z,8.57
2022-08-24T23:20:00.380Z,9.82
2022-08-24T23:22:35.684Z,6.55
2022-08-24T23:25:03.607Z,8.98
2022-08-24T23:27:37.730Z,10.32
2022-08-24T23:30:07.826Z,8.55
2022-08-24T23:32:34.534Z,10.93
2022-08-24T23:35:01.253Z,6.43
2022-08-24T23:37:28.347Z,7.97
2022-08-24T23:39:55.157Z,9.63
2022-08-24T23:42:21.956Z,10.50
2022-08-24T23:44:48.683Z,7.22
2022-08-24T23:47:15.457Z,13.20
2022-08-24T23:49:42.252Z,9.13
2022-08-24T23:52:08.961Z,11.85
2022-08-24T23:54:53.001Z,8.90
2022-08-24T23:57:19.746Z,8.02
2022-08-24T23:59:46.453Z,13.93
